sim
Sign-in with your pilot id or email,
or register
Callsign
Passwort

Schedule Details

Flight Number: OEC11098
Departure: Funchal Cristiano Ronaldo Airport (LPMA) at 16:15 UTC
Arrival: Fuerteventura Airport (GCFV) at 18:47 UTC

Weather Information
Getting current METAR information for LPMA 231100Z 19007KT 160V220 9999 FEW016 24/17 Q1020
Getting current METAR information for GCFV 231100Z 06015KT 9999 FEW020 24/19 Q1017

Schedule Frequency

Route Map